createdAt,value
2022-12-29T00:00:21.328Z,2.86
2022-12-29T00:02:48.068Z,3.88
2022-12-29T00:05:15.441Z,4.32
2022-12-29T00:07:42.251Z,3.26
2022-12-29T00:10:09.248Z,3.00
2022-12-29T00:12:54.631Z,3.61
2022-12-29T00:15:40.745Z,2.94
2022-12-29T00:18:08.864Z,2.18
2022-12-29T00:20:56.505Z,1.40
2022-12-29T00:23:42.403Z,3.47
2022-12-29T00:26:34.794Z,4.27
2022-12-29T00:29:20.002Z,3.65
2022-12-29T00:32:06.396Z,4.16
2022-12-29T00:34:52.950Z,3.09
2022-12-29T00:37:39.644Z,4.88
2022-12-29T00:40:25.530Z,3.28
2022-12-29T00:43:11.515Z,4.81
2022-12-29T00:45:41.692Z,5.95
2022-12-29T00:48:08.400Z,3.31
2022-12-29T00:50:35.095Z,4.03
2022-12-29T00:53:01.855Z,3.27
2022-12-29T00:55:28.567Z,2.19
2022-12-29T00:57:55.619Z,4.36
2022-12-29T01:00:23.156Z,4.95
2022-12-29T01:02:50.111Z,4.13
2022-12-29T01:05:17.275Z,5.71
2022-12-29T01:07:46.211Z,3.27
2022-12-29T01:10:12.987Z,2.15
2022-12-29T01:12:42.685Z,3.89
2022-12-29T01:15:12.771Z,4.18
2022-12-29T01:17:39.561Z,2.42
2022-12-29T01:20:07.081Z,3.36
2022-12-29T01:22:34.083Z,2.47
2022-12-29T01:25:01.141Z,1.54
2022-12-29T01:27:28.264Z,3.76
2022-12-29T01:29:55.080Z,4.43
2022-12-29T01:32:22.097Z,4.11
2022-12-29T01:34:48.777Z,2.81
2022-12-29T01:37:15.524Z,1.77
2022-12-29T01:39:42.405Z,4.20
2022-12-29T01:42:20.495Z,1.58
2022-12-29T01:44:53.467Z,3.07
2022-12-29T01:47:43.271Z,2.81
2022-12-29T01:50:19.767Z,3.58
2022-12-29T01:53:01.260Z,2.87
2022-12-29T01:55:32.377Z,2.39
2022-12-29T01:58:02.437Z,2.42
2022-12-29T02:00:31.259Z,3.08
2022-12-29T02:02:58.050Z,2.11
2022-12-29T02:05:37.501Z,1.36
2022-12-29T02:08:04.937Z,3.61
2022-12-29T02:10:36.135Z,4.08
2022-12-29T02:13:03.535Z,4.20
2022-12-29T02:16:09.471Z,3.11
2022-12-29T02:18:41.301Z,3.41
2022-12-29T02:21:20.865Z,4.08
2022-12-29T02:24:05.888Z,4.05
2022-12-29T02:27:07.523Z,2.10
2022-12-29T02:29:40.232Z,2.87
2022-12-29T02:32:17.686Z,2.10
2022-12-29T02:35:04.943Z,3.17
2022-12-29T02:37:50.189Z,2.74
2022-12-29T02:40:47.197Z,3.62
2022-12-29T02:43:32.677Z,2.96
2022-12-29T02:46:22.905Z,1.65
2022-12-29T02:49:00.485Z,4.20
2022-12-29T02:52:08.866Z,2.23
2022-12-29T02:54:42.741Z,0.57
2022-12-29T02:57:22.824Z,0.95
2022-12-29T03:00:06.032Z,2.69
2022-12-29T03:02:45.356Z,2.87
2022-12-29T03:05:29.456Z,2.90
2022-12-29T03:08:29.584Z,1.81
2022-12-29T03:11:01.578Z,2.00
2022-12-29T03:14:03.192Z,1.68
2022-12-29T03:16:44.420Z,3.49
2022-12-29T03:19:19.163Z,1.34
2022-12-29T03:22:14.163Z,1.65
2022-12-29T03:24:48.783Z,0.40
2022-12-29T03:27:24.293Z,2.85
2022-12-29T03:29:55.256Z,2.03
2022-12-29T03:32:27.752Z,2.87
2022-12-29T03:34:56.067Z,4.99
2022-12-29T03:37:27.574Z,3.78
2022-12-29T03:39:54.595Z,4.28
2022-12-29T03:42:24.889Z,3.66
2022-12-29T03:44:56.334Z,4.55
2022-12-29T03:47:25.243Z,5.78
2022-12-29T03:49:53.298Z,3.99
2022-12-29T03:52:20.432Z,5.39
2022-12-29T03:54:48.243Z,4.00
2022-12-29T03:57:15.043Z,4.67
2022-12-29T03:59:52.276Z,3.30
2022-12-29T04:02:20.074Z,2.88
2022-12-29T04:04:47.727Z,4.32
2022-12-29T04:07:14.466Z,3.97
2022-12-29T04:09:42.474Z,4.08
2022-12-29T04:12:12.548Z,2.09
2022-12-29T04:14:40.015Z,2.78
2022-12-29T04:17:07.238Z,3.04
2022-12-29T04:19:34.900Z,4.68
2022-12-29T04:22:01.908Z,5.21
2022-12-29T04:24:29.011Z,4.15
2022-12-29T04:26:55.840Z,2.55
2022-12-29T04:29:42.350Z,3.32
2022-12-29T04:32:29.454Z,5.55
2022-12-29T04:34:56.755Z,5.09
2022-12-29T04:37:23.870Z,2.43
2022-12-29T04:39:50.656Z,5.67
2022-12-29T04:42:17.932Z,5.19
2022-12-29T04:44:45.659Z,5.06
2022-12-29T04:47:18.297Z,3.14
2022-12-29T04:49:58.361Z,2.37
2022-12-29T04:52:37.847Z,2.92
2022-12-29T04:55:06.936Z,3.91
2022-12-29T04:57:34.589Z,3.95
2022-12-29T05:00:02.478Z,3.59
2022-12-29T05:02:29.429Z,5.02
2022-12-29T05:04:57.250Z,6.45
2022-12-29T05:07:26.078Z,5.87
2022-12-29T05:09:54.153Z,4.74
2022-12-29T05:12:21.013Z,5.78
2022-12-29T05:14:58.873Z,5.98
2022-12-29T05:17:25.740Z,5.51
2022-12-29T05:19:54.229Z,6.77
2022-12-29T05:22:22.767Z,5.94
2022-12-29T05:24:50.476Z,6.44
2022-12-29T05:27:17.481Z,6.11
2022-12-29T05:30:02.599Z,6.76
2022-12-29T05:32:29.665Z,7.13
2022-12-29T05:34:57.328Z,5.18
2022-12-29T05:37:25.625Z,5.57
2022-12-29T05:39:52.363Z,6.63
2022-12-29T05:42:19.248Z,7.22
2022-12-29T05:45:10.625Z,6.77
2022-12-29T05:47:50.902Z,6.09
2022-12-29T05:50:43.917Z,5.54
2022-12-29T05:53:14.419Z,7.83
2022-12-29T05:55:46.956Z,5.36
2022-12-29T05:58:17.219Z,7.08
2022-12-29T06:00:45.126Z,6.74
2022-12-29T06:03:12.508Z,8.48
2022-12-29T06:05:39.658Z,8.01
2022-12-29T06:08:06.818Z,7.22
2022-12-29T06:10:34.570Z,5.51
2022-12-29T06:13:07.249Z,7.48
2022-12-29T06:15:37.292Z,6.62
2022-12-29T06:18:06.800Z,5.90
2022-12-29T06:20:34.672Z,7.07
2022-12-29T06:23:04.811Z,7.46
2022-12-29T06:25:33.309Z,5.89
2022-12-29T06:28:00.860Z,7.69
2022-12-29T06:30:27.650Z,7.92
2022-12-29T06:32:55.956Z,7.13
2022-12-29T06:35:24.979Z,5.19
2022-12-29T06:37:52.398Z,5.35
2022-12-29T06:40:20.211Z,6.66
2022-12-29T06:43:16.143Z,7.51
2022-12-29T06:46:00.680Z,7.92
2022-12-29T06:48:27.378Z,4.97
2022-12-29T06:50:55.069Z,6.70
2022-12-29T06:53:21.798Z,7.70
2022-12-29T06:55:48.578Z,5.31
2022-12-29T06:58:15.613Z,6.80
2022-12-29T07:00:42.515Z,7.93
2022-12-29T07:03:10.142Z,9.06
2022-12-29T07:05:36.858Z,9.56
2022-12-29T07:08:03.616Z,5.82
2022-12-29T07:10:30.585Z,7.02
2022-12-29T07:12:57.485Z,8.78
2022-12-29T07:15:25.380Z,5.75
2022-12-29T07:17:52.267Z,6.10
2022-12-29T07:20:26.240Z,7.68
2022-12-29T07:22:53.664Z,6.88
2022-12-29T07:25:20.383Z,6.36
2022-12-29T07:27:47.106Z,9.09
2022-12-29T07:30:14.073Z,5.63
2022-12-29T07:32:42.116Z,7.89
2022-12-29T07:35:09.005Z,8.03
2022-12-29T07:37:37.037Z,7.98
2022-12-29T07:40:04.758Z,7.25
2022-12-29T07:42:32.292Z,7.03
2022-12-29T07:45:00.039Z,9.17
2022-12-29T07:47:34.139Z,7.25
2022-12-29T07:50:01.341Z,8.84
2022-12-29T07:52:28.083Z,8.03
2022-12-29T07:54:55.567Z,6.62
2022-12-29T07:57:26.463Z,5.93
2022-12-29T07:59:57.140Z,4.77
2022-12-29T08:02:24.041Z,6.86
2022-12-29T08:04:51.576Z,7.64
2022-12-29T08:07:18.286Z,8.36
2022-12-29T08:09:45.023Z,8.36
2022-12-29T08:12:12.284Z,9.09
2022-12-29T08:14:40.661Z,10.14
2022-12-29T08:17:07.349Z,9.59
2022-12-29T08:19:34.169Z,10.21
2022-12-29T08:22:01.280Z,12.47
2022-12-29T08:24:28.079Z,9.34
2022-12-29T08:26:55.920Z,9.43
2022-12-29T08:29:22.848Z,7.62
2022-12-29T08:31:49.711Z,9.44
2022-12-29T08:34:16.517Z,10.12
2022-12-29T08:36:44.172Z,12.48
2022-12-29T08:39:12.117Z,11.28
2022-12-29T08:41:39.059Z,10.74
2022-12-29T08:44:06.458Z,10.95
2022-12-29T08:46:33.303Z,12.22
2022-12-29T08:49:00.286Z,10.06
2022-12-29T08:51:27.452Z,7.44
2022-12-29T08:53:54.198Z,9.36
2022-12-29T08:56:21.789Z,7.21
2022-12-29T08:58:52.753Z,6.84
2022-12-29T09:01:21.325Z,9.10
2022-12-29T09:04:18.937Z,9.88
2022-12-29T09:06:40.131Z,10.29
2022-12-29T09:09:08.147Z,8.99
2022-12-29T09:11:34.885Z,9.41
2022-12-29T09:14:01.843Z,9.80
2022-12-29T09:16:28.834Z,9.35
2022-12-29T09:18:56.272Z,10.65
2022-12-29T09:21:23.082Z,8.99
2022-12-29T09:23:50.128Z,7.36
2022-12-29T09:26:16.980Z,10.09
2022-12-29T09:28:45.507Z,8.82
2022-12-29T09:31:12.965Z,9.12
2022-12-29T09:33:39.822Z,7.79
2022-12-29T09:36:06.949Z,8.40
2022-12-29T09:38:33.724Z,7.39
2022-12-29T09:41:39.600Z,8.88
2022-12-29T09:44:24.796Z,8.67
2022-12-29T09:46:56.821Z,7.34
2022-12-29T09:49:33.231Z,10.50
2022-12-29T09:52:07.436Z,9.08
2022-12-29T09:57:26.917Z,12.23
2022-12-29T10:00:00.957Z,13.19
2022-12-29T10:02:43.264Z,16.87
2022-12-29T10:05:21.342Z,13.15
2022-12-29T10:08:17.780Z,9.70
2022-12-29T10:11:09.008Z,10.87
2022-12-29T10:14:03.677Z,9.62
2022-12-29T10:16:43.332Z,12.01
2022-12-29T10:19:35.399Z,10.40
2022-12-29T10:22:02.294Z,11.71
2022-12-29T10:24:30.513Z,12.88
2022-12-29T10:27:00.346Z,8.96
2022-12-29T10:29:44.195Z,11.33
2022-12-29T10:32:37.877Z,10.82
2022-12-29T10:35:12.388Z,14.42
2022-12-29T10:38:06.776Z,15.59
2022-12-29T10:40:46.411Z,13.86
2022-12-29T10:43:27.839Z,12.26
2022-12-29T10:46:02.267Z,11.57
2022-12-29T10:48:34.737Z,11.84
2022-12-29T10:51:06.066Z,13.59
2022-12-29T10:53:44.751Z,12.89
2022-12-29T10:56:41.405Z,14.21
2022-12-29T10:59:33.977Z,15.14
2022-12-29T11:02:23.366Z,16.06
2022-12-29T11:04:59.581Z,13.32
2022-12-29T11:07:27.996Z,13.22
2022-12-29T11:09:55.128Z,17.10
2022-12-29T11:12:31.732Z,14.64
2022-12-29T11:15:08.613Z,14.79
2022-12-29T11:17:53.259Z,15.51
2022-12-29T11:20:33.648Z,15.92
2022-12-29T11:23:01.071Z,15.68
2022-12-29T11:25:29.465Z,17.26
2022-12-29T11:28:02.364Z,15.85
2022-12-29T11:30:32.001Z,12.79
2022-12-29T11:32:59.581Z,15.17
2022-12-29T11:35:37.434Z,16.08
2022-12-29T11:38:19.784Z,14.05
2022-12-29T11:40:46.495Z,14.55
2022-12-29T11:43:36.373Z,14.73
2022-12-29T11:46:06.707Z,16.10
2022-12-29T11:48:40.752Z,14.68
2022-12-29T11:51:08.817Z,14.41
2022-12-29T11:53:48.623Z,14.66
2022-12-29T11:56:18.344Z,14.68
2022-12-29T11:58:45.235Z,16.25
2022-12-29T12:01:18.529Z,14.02
2022-12-29T12:04:04.773Z,14.51
2022-12-29T12:06:36.185Z,15.41
2022-12-29T12:09:24.249Z,16.68
2022-12-29T12:11:55.624Z,15.87
2022-12-29T12:14:38.309Z,14.54
2022-12-29T12:18:01.236Z,15.42
2022-12-29T12:20:44.555Z,15.34
2022-12-29T12:23:27.087Z,15.75
2022-12-29T12:26:02.625Z,14.89
2022-12-29T12:28:55.113Z,14.76
2022-12-29T12:31:40.360Z,13.79
2022-12-29T12:34:17.557Z,14.40
2022-12-29T12:37:16.441Z,15.16
2022-12-29T12:40:03.960Z,12.89
2022-12-29T12:42:54.631Z,13.32
2022-12-29T12:45:39.852Z,12.20
2022-12-29T12:48:31.288Z,12.66
2022-12-29T12:51:00.689Z,12.46
2022-12-29T12:53:42.353Z,14.05
2022-12-29T12:56:27.412Z,12.04
2022-12-29T12:59:32.264Z,14.13
2022-12-29T13:02:04.222Z,10.97
2022-12-29T13:05:14.242Z,10.58
2022-12-29T13:08:12.139Z,13.89
2022-12-29T13:11:07.289Z,12.24
2022-12-29T13:14:15.356Z,13.49
2022-12-29T13:17:06.236Z,13.41
2022-12-29T13:19:41.951Z,15.09
2022-12-29T13:22:12.616Z,13.92
2022-12-29T13:25:02.657Z,12.88
2022-12-29T13:27:36.893Z,12.29
2022-12-29T13:30:20.495Z,13.63
2022-12-29T13:33:21.337Z,13.52
2022-12-29T13:35:55.608Z,14.01
2022-12-29T13:38:40.155Z,12.95
2022-12-29T13:41:11.126Z,12.73
2022-12-29T13:43:44.356Z,13.20
2022-12-29T13:46:16.918Z,12.42
2022-12-29T13:48:56.400Z,13.01
2022-12-29T13:51:28.299Z,12.42
2022-12-29T13:53:56.091Z,13.83
2022-12-29T13:56:38.850Z,13.76
2022-12-29T13:59:17.575Z,12.92
2022-12-29T14:02:30.054Z,13.92
2022-12-29T14:05:03.409Z,13.29
2022-12-29T14:07:38.740Z,14.10
2022-12-29T14:10:06.674Z,14.08
2022-12-29T14:12:40.891Z,13.43
2022-12-29T14:15:22.357Z,15.08
2022-12-29T14:18:13.079Z,13.09
2022-12-29T14:20:52.994Z,13.85
2022-12-29T14:23:30.975Z,13.20
2022-12-29T14:26:06.450Z,13.14
2022-12-29T14:28:40.175Z,13.90
2022-12-29T14:31:29.802Z,13.53
2022-12-29T14:34:11.545Z,13.17
2022-12-29T14:36:41.183Z,12.70
2022-12-29T14:39:38.269Z,13.65
2022-12-29T14:42:11.173Z,12.22
2022-12-29T14:44:54.477Z,10.70
2022-12-29T14:47:33.442Z,13.23
2022-12-29T14:50:02.243Z,12.17
2022-12-29T14:52:31.117Z,12.51
2022-12-29T14:55:16.352Z,13.27
2022-12-29T14:57:48.588Z,13.08
2022-12-29T15:00:21.259Z,12.60
2022-12-29T15:02:54.658Z,12.69
2022-12-29T15:05:31.488Z,12.13
2022-12-29T15:08:00.425Z,10.68
2022-12-29T15:10:36.925Z,12.92
2022-12-29T15:13:06.548Z,12.15
2022-12-29T15:15:39.783Z,11.56
2022-12-29T15:18:24.799Z,11.81
2022-12-29T15:21:06.201Z,10.76
2022-12-29T15:23:35.953Z,13.00
2022-12-29T15:26:06.895Z,12.27
2022-12-29T15:28:45.320Z,11.78
2022-12-29T15:31:29.759Z,11.21
2022-12-29T15:34:10.822Z,12.85
2022-12-29T15:36:40.540Z,10.38
2022-12-29T15:39:42.868Z,12.78
2022-12-29T15:42:49.676Z,8.01
2022-12-29T15:45:17.419Z,10.29
2022-12-29T15:47:49.767Z,8.96
2022-12-29T15:50:30.639Z,10.14
2022-12-29T15:52:58.831Z,11.57
2022-12-29T15:55:33.063Z,10.71
2022-12-29T15:58:01.955Z,10.81
2022-12-29T16:00:31.201Z,10.61
2022-12-29T16:03:01.939Z,9.09
2022-12-29T16:05:37.308Z,8.10
2022-12-29T16:08:05.064Z,11.29
2022-12-29T16:10:43.360Z,8.93
2022-12-29T16:13:36.865Z,11.78
2022-12-29T16:16:17.931Z,10.46
2022-12-29T16:18:46.124Z,10.57
2022-12-29T16:21:31.057Z,9.44
2022-12-29T16:24:03.280Z,8.85
2022-12-29T16:26:31.488Z,10.62
2022-12-29T16:29:01.163Z,11.45
2022-12-29T16:31:51.351Z,9.39
2022-12-29T16:34:29.236Z,11.69
2022-12-29T16:37:23.286Z,10.35
2022-12-29T16:39:50.292Z,11.61
2022-12-29T16:42:37.422Z,9.92
2022-12-29T16:45:20.557Z,10.26
2022-12-29T16:48:06.819Z,9.52
2022-12-29T16:50:42.855Z,9.00
2022-12-29T16:53:32.784Z,8.66
2022-12-29T16:56:06.577Z,9.71
2022-12-29T16:58:34.484Z,7.47
2022-12-29T17:01:03.947Z,9.16
2022-12-29T17:03:42.738Z,8.09
2022-12-29T17:06:17.528Z,10.20
2022-12-29T17:08:46.689Z,9.52
2022-12-29T17:11:59.261Z,9.27
2022-12-29T17:14:52.847Z,10.40
2022-12-29T17:17:24.812Z,10.67
2022-12-29T17:19:55.048Z,9.90
2022-12-29T17:22:27.830Z,8.24
2022-12-29T17:24:57.521Z,8.51
2022-12-29T17:27:34.507Z,9.89
2022-12-29T17:30:07.123Z,8.60
2022-12-29T17:32:34.661Z,10.93
2022-12-29T17:35:05.322Z,10.66
2022-12-29T17:37:37.877Z,10.39
2022-12-29T17:40:07.798Z,9.35
2022-12-29T17:42:38.621Z,8.67
2022-12-29T17:45:06.067Z,7.97
2022-12-29T17:47:33.544Z,8.79
2022-12-29T17:50:03.637Z,8.85
2022-12-29T17:52:33.128Z,9.12
2022-12-29T17:55:01.938Z,8.53
2022-12-29T17:57:28.712Z,9.70
2022-12-29T17:59:55.447Z,9.25
2022-12-29T18:02:27.121Z,8.23
2022-12-29T18:04:54.086Z,7.85
2022-12-29T18:07:22.370Z,9.71
2022-12-29T18:09:49.157Z,7.19
2022-12-29T18:12:39.359Z,8.47
2022-12-29T18:15:08.501Z,10.33
2022-12-29T18:17:35.273Z,9.42
2022-12-29T18:20:02.495Z,10.31
2022-12-29T18:22:30.214Z,9.19
2022-12-29T18:24:57.039Z,8.85
2022-12-29T18:27:23.899Z,8.45
2022-12-29T18:29:50.637Z,8.71
2022-12-29T18:32:18.757Z,8.78
2022-12-29T18:34:45.543Z,8.71
2022-12-29T18:37:13.110Z,8.93
2022-12-29T18:39:39.919Z,8.59
2022-12-29T18:42:07.797Z,10.04
2022-12-29T18:44:35.146Z,9.20
2022-12-29T18:47:02.697Z,7.13
2022-12-29T18:49:30.407Z,6.76
2022-12-29T18:51:57.414Z,8.83
2022-12-29T18:54:33.684Z,9.19
2022-12-29T18:57:00.563Z,9.01
2022-12-29T18:59:28.066Z,8.14
2022-12-29T19:01:54.896Z,9.33
2022-12-29T19:04:22.726Z,8.02
2022-12-29T19:06:49.758Z,8.17
2022-12-29T19:09:18.156Z,8.97
2022-12-29T19:11:45.607Z,9.07
2022-12-29T19:14:17.898Z,7.12
2022-12-29T19:16:50.002Z,9.61
2022-12-29T19:19:18.151Z,10.64
2022-12-29T19:21:45.735Z,8.78
2022-12-29T19:24:13.437Z,5.69
2022-12-29T19:26:40.578Z,5.97
2022-12-29T19:29:13.693Z,7.28
2022-12-29T19:31:40.570Z,5.49
2022-12-29T19:34:08.160Z,6.52
2022-12-29T19:36:35.172Z,5.86
2022-12-29T19:39:03.204Z,5.66
2022-12-29T19:41:29.977Z,7.25
2022-12-29T19:43:56.735Z,7.26
2022-12-29T19:46:24.598Z,8.22
2022-12-29T19:48:52.564Z,9.26
2022-12-29T19:51:19.802Z,7.12
2022-12-29T19:53:47.124Z,7.50
2022-12-29T19:56:14.454Z,7.05
2022-12-29T19:58:46.594Z,8.22
2022-12-29T20:01:19.886Z,7.19
2022-12-29T20:03:48.679Z,7.17
2022-12-29T20:06:17.236Z,6.96
2022-12-29T20:08:44.884Z,6.32
2022-12-29T20:11:16.149Z,6.69
2022-12-29T20:13:44.382Z,8.88
2022-12-29T20:16:20.685Z,8.90
2022-12-29T20:18:50.465Z,9.57
2022-12-29T20:21:20.277Z,8.29
2022-12-29T20:23:49.517Z,8.86
2022-12-29T20:26:23.537Z,10.68
2022-12-29T20:28:51.678Z,8.01
2022-12-29T20:31:26.755Z,10.22
2022-12-29T20:33:54.865Z,6.55
2022-12-29T20:36:26.254Z,6.44
2022-12-29T20:38:55.745Z,8.56
2022-12-29T20:41:23.664Z,9.08
2022-12-29T20:43:53.256Z,8.58
2022-12-29T20:46:24.186Z,6.49
2022-12-29T20:48:54.353Z,7.68
2022-12-29T20:51:21.158Z,9.25
2022-12-29T20:53:49.395Z,10.22
2022-12-29T20:56:20.509Z,8.73
2022-12-29T20:59:25.313Z,7.71
2022-12-29T21:01:36.726Z,7.93
2022-12-29T21:04:04.891Z,7.90
2022-12-29T21:06:32.670Z,8.96
2022-12-29T21:09:00.353Z,7.71
2022-12-29T21:11:28.839Z,6.54
2022-12-29T21:13:58.213Z,6.66
2022-12-29T21:16:29.086Z,7.68
2022-12-29T21:18:56.036Z,9.14
2022-12-29T21:21:25.279Z,9.68
2022-12-29T21:23:52.948Z,9.80
2022-12-29T21:26:23.615Z,9.72
2022-12-29T21:28:51.766Z,8.50
2022-12-29T21:31:33.418Z,9.99
2022-12-29T21:34:03.107Z,9.61
2022-12-29T21:36:30.723Z,9.90
2022-12-29T21:38:58.987Z,8.66
2022-12-29T21:41:26.535Z,10.10
2022-12-29T21:44:12.524Z,8.45
2022-12-29T21:46:42.023Z,7.69
2022-12-29T21:49:09.637Z,8.96
2022-12-29T21:51:52.366Z,8.64
2022-12-29T21:54:46.409Z,9.65
2022-12-29T21:57:36.830Z,10.58
2022-12-29T22:00:27.407Z,9.35
2022-12-29T22:03:22.178Z,10.21
2022-12-29T22:06:08.977Z,9.07
2022-12-29T22:08:55.830Z,6.98
2022-12-29T22:11:41.032Z,9.34
2022-12-29T22:14:07.868Z,8.87
2022-12-29T22:16:35.578Z,8.46
2022-12-29T22:19:02.539Z,8.27
2022-12-29T22:21:29.900Z,6.99
2022-12-29T22:23:56.662Z,5.55
2022-12-29T22:26:23.443Z,7.67
2022-12-29T22:28:52.546Z,8.71
2022-12-29T22:31:30.551Z,9.13
2022-12-29T22:33:59.755Z,10.44
2022-12-29T22:36:27.170Z,8.72
2022-12-29T22:38:54.233Z,8.34
2022-12-29T22:41:22.437Z,8.06
2022-12-29T22:43:49.202Z,9.46
2022-12-29T22:46:17.692Z,7.66
2022-12-29T22:48:44.849Z,8.92
2022-12-29T22:51:11.647Z,7.93
2022-12-29T22:53:39.612Z,7.91
2022-12-29T22:56:12.192Z,8.95
2022-12-29T22:58:47.535Z,7.43
2022-12-29T23:01:17.695Z,6.81
2022-12-29T23:03:45.107Z,8.40
2022-12-29T23:06:13.888Z,7.46
2022-12-29T23:08:40.796Z,7.40
2022-12-29T23:11:09.935Z,7.99
2022-12-29T23:13:37.867Z,9.61
2022-12-29T23:16:05.657Z,8.85
2022-12-29T23:18:32.842Z,6.97
2022-12-29T23:21:00.085Z,8.53
2022-12-29T23:23:49.150Z,9.24
2022-12-29T23:26:18.691Z,9.15
2022-12-29T23:28:45.871Z,8.31
2022-12-29T23:31:13.912Z,9.58
2022-12-29T23:33:41.003Z,8.05
2022-12-29T23:36:08.093Z,9.11
2022-12-29T23:38:35.915Z,6.91
2022-12-29T23:41:02.933Z,8.05
2022-12-29T23:43:29.658Z,7.06
2022-12-29T23:45:56.351Z,8.12
2022-12-29T23:48:23.212Z,6.69
2022-12-29T23:50:50.004Z,9.34
2022-12-29T23:53:18.049Z,8.20
2022-12-29T23:55:44.791Z,7.59
2022-12-29T23:58:11.530Z,8.64
